sensor_id;sensor_type;location;lat;lon;timestamp;P1;durP1;ratioP1;P2;durP2;ratioP2
36291;SDS011;22327;51.208;6.418;2024-03-23T00:52:21;14.30;;;3.65;;
36291;SDS011;22327;51.208;6.418;2024-03-23T00:55:22;9.13;;;2.92;;
36291;SDS011;22327;51.208;6.418;2024-03-23T00:58:23;13.73;;;2.95;;
36291;SDS011;22327;51.208;6.418;2024-03-23T01:01:23;8.35;;;2.63;;
36291;SDS011;22327;51.208;6.418;2024-03-23T01:04:24;8.70;;;2.80;;
36291;SDS011;22327;51.208;6.418;2024-03-23T01:07:24;11.98;;;2.75;;
36291;SDS011;22327;51.208;6.418;2024-03-23T01:10:25;7.25;;;2.40;;
36291;SDS011;22327;51.208;6.418;2024-03-23T01:13:25;9.73;;;2.45;;
36291;SDS011;22327;51.208;6.418;2024-03-23T01:16:26;7.47;;;1.83;;
36291;SDS011;22327;51.208;6.418;2024-03-23T01:19:27;9.10;;;2.15;;
36291;SDS011;22327;51.208;6.418;2024-03-23T01:22:27;7.95;;;2.38;;
36291;SDS011;22327;51.208;6.418;2024-03-23T01:25:28;9.30;;;2.00;;
36291;SDS011;22327;51.208;6.418;2024-03-23T01:28:28;6.68;;;1.58;;
36291;SDS011;22327;51.208;6.418;2024-03-23T01:31:29;8.55;;;1.88;;
36291;SDS011;22327;51.208;6.418;2024-03-23T01:34:29;5.03;;;1.52;;
36291;SDS011;22327;51.208;6.418;2024-03-23T01:37:30;4.65;;;1.48;;
36291;SDS011;22327;51.208;6.418;2024-03-23T01:40:31;6.03;;;1.63;;
36291;SDS011;22327;51.208;6.418;2024-03-23T01:43:32;12.60;;;2.38;;
36291;SDS011;22327;51.208;6.418;2024-03-23T01:46:32;7.63;;;1.60;;
36291;SDS011;22327;51.208;6.418;2024-03-23T01:49:33;8.52;;;1.92;;
36291;SDS011;22327;51.208;6.418;2024-03-23T01:52:34;5.25;;;2.38;;
36291;SDS011;22327;51.208;6.418;2024-03-23T01:55:35;8.75;;;2.00;;
36291;SDS011;22327;51.208;6.418;2024-03-23T01:58:35;11.13;;;2.20;;
36291;SDS011;22327;51.208;6.418;2024-03-23T02:01:36;8.32;;;1.95;;
36291;SDS011;22327;51.208;6.418;2024-03-23T02:04:36;9.18;;;2.10;;
36291;SDS011;22327;51.208;6.418;2024-03-23T02:07:38;8.50;;;1.80;;
36291;SDS011;22327;51.208;6.418;2024-03-23T02:10:39;8.43;;;1.83;;
36291;SDS011;22327;51.208;6.418;2024-03-23T02:13:39;7.28;;;1.58;;
36291;SDS011;22327;51.208;6.418;2024-03-23T02:16:40;7.47;;;1.92;;
36291;SDS011;22327;51.208;6.418;2024-03-23T02:19:41;5.20;;;1.40;;
36291;SDS011;22327;51.208;6.418;2024-03-23T02:22:42;6.30;;;1.70;;
36291;SDS011;22327;51.208;6.418;2024-03-23T02:25:42;7.93;;;1.80;;
36291;SDS011;22327;51.208;6.418;2024-03-23T02:28:43;6.90;;;1.85;;
36291;SDS011;22327;51.208;6.418;2024-03-23T02:31:43;8.05;;;2.58;;
36291;SDS011;22327;51.208;6.418;2024-03-23T02:34:44;9.30;;;2.10;;
36291;SDS011;22327;51.208;6.418;2024-03-23T02:37:45;8.80;;;2.03;;
36291;SDS011;22327;51.208;6.418;2024-03-23T02:40:48;7.25;;;2.00;;
36291;SDS011;22327;51.208;6.418;2024-03-23T02:43:49;9.13;;;2.35;;
36291;SDS011;22327;51.208;6.418;2024-03-23T02:46:50;7.93;;;2.22;;
36291;SDS011;22327;51.208;6.418;2024-03-23T02:49:50;10.38;;;2.05;;
36291;SDS011;22327;51.208;6.418;2024-03-23T02:52:51;6.70;;;1.88;;
36291;SDS011;22327;51.208;6.418;2024-03-23T02:55:51;6.72;;;2.05;;
36291;SDS011;22327;51.208;6.418;2024-03-23T02:58:52;8.85;;;1.75;;
36291;SDS011;22327;51.208;6.418;2024-03-23T03:01:52;10.70;;;1.70;;
36291;SDS011;22327;51.208;6.418;2024-03-23T03:04:53;6.93;;;1.95;;
36291;SDS011;22327;51.208;6.418;2024-03-23T03:07:53;11.23;;;2.00;;
36291;SDS011;22327;51.208;6.418;2024-03-23T03:10:54;10.80;;;2.03;;
36291;SDS011;22327;51.208;6.418;2024-03-23T03:13:54;11.13;;;2.17;;
36291;SDS011;22327;51.208;6.418;2024-03-23T03:16:55;9.63;;;2.08;;
36291;SDS011;22327;51.208;6.418;2024-03-23T03:19:55;12.02;;;2.20;;
36291;SDS011;22327;51.208;6.418;2024-03-23T03:22:56;9.30;;;2.20;;
36291;SDS011;22327;51.208;6.418;2024-03-23T03:25:57;10.15;;;3.00;;
36291;SDS011;22327;51.208;6.418;2024-03-23T03:28:57;10.30;;;2.35;;
36291;SDS011;22327;51.208;6.418;2024-03-23T03:31:58;9.05;;;2.95;;
36291;SDS011;22327;51.208;6.418;2024-03-23T03:34:58;9.65;;;2.40;;
36291;SDS011;22327;51.208;6.418;2024-03-23T03:37:59;9.80;;;2.80;;
36291;SDS011;22327;51.208;6.418;2024-03-23T03:40:59;9.50;;;2.45;;
36291;SDS011;22327;51.208;6.418;2024-03-23T03:44:00;10.80;;;2.20;;
36291;SDS011;22327;51.208;6.418;2024-03-23T03:47:02;5.53;;;2.03;;
36291;SDS011;22327;51.208;6.418;2024-03-23T03:50:02;8.45;;;2.15;;
36291;SDS011;22327;51.208;6.418;2024-03-23T03:53:03;5.47;;;2.00;;
36291;SDS011;22327;51.208;6.418;2024-03-23T03:56:04;11.93;;;2.50;;
36291;SDS011;22327;51.208;6.418;2024-03-23T03:59:05;17.20;;;2.45;;
36291;SDS011;22327;51.208;6.418;2024-03-23T04:02:05;11.35;;;2.20;;
36291;SDS011;22327;51.208;6.418;2024-03-23T04:05:06;9.10;;;2.33;;
36291;SDS011;22327;51.208;6.418;2024-03-23T04:08:08;9.50;;;2.70;;
36291;SDS011;22327;51.208;6.418;2024-03-23T04:11:08;10.45;;;3.03;;
36291;SDS011;22327;51.208;6.418;2024-03-23T04:14:09;9.82;;;2.90;;
36291;SDS011;22327;51.208;6.418;2024-03-23T04:17:09;12.27;;;3.58;;
36291;SDS011;22327;51.208;6.418;2024-03-23T04:20:10;9.05;;;3.03;;
36291;SDS011;22327;51.208;6.418;2024-03-23T04:23:11;8.20;;;3.00;;
36291;SDS011;22327;51.208;6.418;2024-03-23T04:26:11;13.73;;;3.20;;
36291;SDS011;22327;51.208;6.418;2024-03-23T04:29:12;13.35;;;3.22;;
36291;SDS011;22327;51.208;6.418;2024-03-23T04:32:13;11.35;;;3.05;;
36291;SDS011;22327;51.208;6.418;2024-03-23T04:35:14;9.38;;;2.90;;
36291;SDS011;22327;51.208;6.418;2024-03-23T04:38:14;11.57;;;3.28;;
36291;SDS011;22327;51.208;6.418;2024-03-23T04:41:16;10.73;;;3.35;;
36291;SDS011;22327;51.208;6.418;2024-03-23T04:44:17;10.93;;;3.20;;
36291;SDS011;22327;51.208;6.418;2024-03-23T04:47:17;14.02;;;3.30;;
36291;SDS011;22327;51.208;6.418;2024-03-23T04:50:18;11.77;;;3.92;;
36291;SDS011;22327;51.208;6.418;2024-03-23T04:53:19;9.68;;;3.00;;
36291;SDS011;22327;51.208;6.418;2024-03-23T04:56:19;10.65;;;3.38;;
36291;SDS011;22327;51.208;6.418;2024-03-23T04:59:20;12.48;;;2.80;;
36291;SDS011;22327;51.208;6.418;2024-03-23T05:02:20;8.98;;;3.00;;
36291;SDS011;22327;51.208;6.418;2024-03-23T05:05:21;9.15;;;2.42;;
36291;SDS011;22327;51.208;6.418;2024-03-23T05:08:21;10.75;;;2.80;;
36291;SDS011;22327;51.208;6.418;2024-03-23T05:11:22;8.13;;;2.67;;
36291;SDS011;22327;51.208;6.418;2024-03-23T05:14:22;8.38;;;3.05;;
36291;SDS011;22327;51.208;6.418;2024-03-23T05:17:23;10.73;;;3.65;;
36291;SDS011;22327;51.208;6.418;2024-03-23T05:20:23;14.20;;;3.70;;
36291;SDS011;22327;51.208;6.418;2024-03-23T05:23:30;10.35;;;3.35;;
36291;SDS011;22327;51.208;6.418;2024-03-23T05:26:31;13.43;;;3.60;;
36291;SDS011;22327;51.208;6.418;2024-03-23T05:29:34;12.83;;;3.43;;
36291;SDS011;22327;51.208;6.418;2024-03-23T05:32:34;9.60;;;3.55;;
36291;SDS011;22327;51.208;6.418;2024-03-23T05:35:35;10.63;;;3.83;;
36291;SDS011;22327;51.208;6.418;2024-03-23T05:38:35;14.27;;;3.35;;
36291;SDS011;22327;51.208;6.418;2024-03-23T05:41:36;10.48;;;3.42;;
36291;SDS011;22327;51.208;6.418;2024-03-23T05:44:36;12.77;;;3.70;;
36291;SDS011;22327;51.208;6.418;2024-03-23T05:47:37;9.93;;;3.63;;
36291;SDS011;22327;51.208;6.418;2024-03-23T05:50:38;15.48;;;3.78;;
36291;SDS011;22327;51.208;6.418;2024-03-23T05:53:39;18.00;;;3.92;;
36291;SDS011;22327;51.208;6.418;2024-03-23T05:56:39;19.27;;;4.25;;
36291;SDS011;22327;51.208;6.418;2024-03-23T05:59:40;12.50;;;4.10;;
36291;SDS011;22327;51.208;6.418;2024-03-23T06:02:40;13.25;;;4.38;;
36291;SDS011;22327;51.208;6.418;2024-03-23T06:05:41;12.77;;;4.38;;
36291;SDS011;22327;51.208;6.418;2024-03-23T06:08:42;16.13;;;5.18;;
36291;SDS011;22327;51.208;6.418;2024-03-23T06:11:43;9.30;;;4.50;;
36291;SDS011;22327;51.208;6.418;2024-03-23T06:14:43;16.95;;;5.25;;
36291;SDS011;22327;51.208;6.418;2024-03-23T06:17:44;14.82;;;4.88;;
36291;SDS011;22327;51.208;6.418;2024-03-23T06:20:45;11.07;;;5.25;;
36291;SDS011;22327;51.208;6.418;2024-03-23T06:23:46;14.75;;;4.32;;
36291;SDS011;22327;51.208;6.418;2024-03-23T06:26:52;12.20;;;4.20;;
36291;SDS011;22327;51.208;6.418;2024-03-23T06:29:53;13.95;;;4.55;;
36291;SDS011;22327;51.208;6.418;2024-03-23T06:32:54;7.90;;;3.78;;
36291;SDS011;22327;51.208;6.418;2024-03-23T06:35:55;11.13;;;3.50;;
36291;SDS011;22327;51.208;6.418;2024-03-23T06:38:55;8.95;;;3.67;;
36291;SDS011;22327;51.208;6.418;2024-03-23T06:41:56;11.07;;;3.30;;
36291;SDS011;22327;51.208;6.418;2024-03-23T06:44:56;9.18;;;3.45;;
36291;SDS011;22327;51.208;6.418;2024-03-23T06:47:57;8.88;;;3.13;;
36291;SDS011;22327;51.208;6.418;2024-03-23T06:50:58;9.85;;;3.03;;
36291;SDS011;22327;51.208;6.418;2024-03-23T06:53:58;8.35;;;3.17;;
36291;SDS011;22327;51.208;6.418;2024-03-23T06:56:59;12.20;;;3.22;;
36291;SDS011;22327;51.208;6.418;2024-03-23T06:59:59;9.40;;;3.03;;
36291;SDS011;22327;51.208;6.418;2024-03-23T07:03:00;9.65;;;3.10;;
36291;SDS011;22327;51.208;6.418;2024-03-23T07:06:01;4.95;;;2.92;;
36291;SDS011;22327;51.208;6.418;2024-03-23T07:09:01;5.65;;;2.50;;
36291;SDS011;22327;51.208;6.418;2024-03-23T07:12:02;7.53;;;2.60;;
36291;SDS011;22327;51.208;6.418;2024-03-23T07:15:03;7.88;;;3.30;;
36291;SDS011;22327;51.208;6.418;2024-03-23T07:18:04;7.18;;;2.72;;
36291;SDS011;22327;51.208;6.418;2024-03-23T07:21:04;9.13;;;2.97;;
36291;SDS011;22327;51.208;6.418;2024-03-23T07:24:06;8.25;;;2.95;;
36291;SDS011;22327;51.208;6.418;2024-03-23T07:27:07;8.65;;;3.60;;
36291;SDS011;22327;51.208;6.418;2024-03-23T07:30:10;8.70;;;3.20;;
36291;SDS011;22327;51.208;6.418;2024-03-23T07:33:10;7.75;;;2.67;;
36291;SDS011;22327;51.208;6.418;2024-03-23T07:36:11;7.78;;;3.15;;
36291;SDS011;22327;51.208;6.418;2024-03-23T07:39:12;8.45;;;3.00;;
36291;SDS011;22327;51.208;6.418;2024-03-23T07:42:12;7.45;;;2.60;;
36291;SDS011;22327;51.208;6.418;2024-03-23T07:45:13;7.53;;;2.80;;
36291;SDS011;22327;51.208;6.418;2024-03-23T07:48:14;4.25;;;2.50;;
36291;SDS011;22327;51.208;6.418;2024-03-23T07:51:18;6.38;;;2.47;;
36291;SDS011;22327;51.208;6.418;2024-03-23T07:54:22;6.45;;;2.13;;
36291;SDS011;22327;51.208;6.418;2024-03-23T07:57:23;7.32;;;2.40;;
36291;SDS011;22327;51.208;6.418;2024-03-23T08:00:24;8.63;;;2.55;;
36291;SDS011;22327;51.208;6.418;2024-03-23T08:03:24;8.32;;;2.28;;
36291;SDS011;22327;51.208;6.418;2024-03-23T08:06:25;6.63;;;2.25;;
36291;SDS011;22327;51.208;6.418;2024-03-23T08:09:25;5.85;;;2.05;;
36291;SDS011;22327;51.208;6.418;2024-03-23T08:12:26;5.65;;;1.70;;
36291;SDS011;22327;51.208;6.418;2024-03-23T08:15:26;7.45;;;1.92;;
36291;SDS011;22327;51.208;6.418;2024-03-23T08:18:29;7.03;;;1.90;;
36291;SDS011;22327;51.208;6.418;2024-03-23T08:21:31;7.50;;;2.45;;
36291;SDS011;22327;51.208;6.418;2024-03-23T08:24:31;6.00;;;1.98;;
36291;SDS011;22327;51.208;6.418;2024-03-23T08:27:32;6.03;;;1.60;;
36291;SDS011;22327;51.208;6.418;2024-03-23T08:30:34;6.05;;;1.92;;
36291;SDS011;22327;51.208;6.418;2024-03-23T08:33:35;7.53;;;1.80;;
36291;SDS011;22327;51.208;6.418;2024-03-23T08:36:36;6.25;;;1.80;;
36291;SDS011;22327;51.208;6.418;2024-03-23T08:39:37;7.28;;;1.70;;
36291;SDS011;22327;51.208;6.418;2024-03-23T08:42:37;2.83;;;1.70;;
36291;SDS011;22327;51.208;6.418;2024-03-23T08:45:38;7.18;;;1.92;;
36291;SDS011;22327;51.208;6.418;2024-03-23T08:48:39;4.82;;;1.73;;
36291;SDS011;22327;51.208;6.418;2024-03-23T08:51:43;8.60;;;2.28;;
36291;SDS011;22327;51.208;6.418;2024-03-23T08:54:43;7.57;;;2.30;;
36291;SDS011;22327;51.208;6.418;2024-03-23T08:57:44;5.18;;;2.40;;
36291;SDS011;22327;51.208;6.418;2024-03-23T09:00:44;6.13;;;3.00;;
36291;SDS011;22327;51.208;6.418;2024-03-23T09:03:45;8.35;;;2.55;;
36291;SDS011;22327;51.208;6.418;2024-03-23T09:06:45;5.72;;;2.10;;
36291;SDS011;22327;51.208;6.418;2024-03-23T09:09:46;4.38;;;2.53;;
36291;SDS011;22327;51.208;6.418;2024-03-23T09:12:46;9.80;;;2.75;;
36291;SDS011;22327;51.208;6.418;2024-03-23T09:15:48;6.68;;;2.47;;
36291;SDS011;22327;51.208;6.418;2024-03-23T09:18:49;3.55;;;2.17;;
36291;SDS011;22327;51.208;6.418;2024-03-23T09:21:50;7.25;;;2.25;;
36291;SDS011;22327;51.208;6.418;2024-03-23T09:24:50;5.70;;;1.70;;
36291;SDS011;22327;51.208;6.418;2024-03-23T09:27:51;5.28;;;1.63;;
36291;SDS011;22327;51.208;6.418;2024-03-23T09:30:52;5.70;;;1.80;;
36291;SDS011;22327;51.208;6.418;2024-03-23T09:33:52;4.72;;;1.23;;
36291;SDS011;22327;51.208;6.418;2024-03-23T09:36:54;4.90;;;1.67;;
36291;SDS011;22327;51.208;6.418;2024-03-23T09:39:54;3.45;;;1.40;;
36291;SDS011;22327;51.208;6.418;2024-03-23T09:42:55;3.53;;;1.60;;
36291;SDS011;22327;51.208;6.418;2024-03-23T09:45:55;7.40;;;1.80;;
36291;SDS011;22327;51.208;6.418;2024-03-23T09:48:56;4.15;;;1.20;;
36291;SDS011;22327;51.208;6.418;2024-03-23T09:51:57;7.03;;;2.03;;
36291;SDS011;22327;51.208;6.418;2024-03-23T09:54:57;5.05;;;1.73;;
36291;SDS011;22327;51.208;6.418;2024-03-23T09:57:59;5.68;;;1.63;;
36291;SDS011;22327;51.208;6.418;2024-03-23T10:00:59;5.60;;;1.80;;
36291;SDS011;22327;51.208;6.418;2024-03-23T10:04:00;5.75;;;1.10;;
36291;SDS011;22327;51.208;6.418;2024-03-23T10:07:10;1.52;;;0.80;;
36291;SDS011;22327;51.208;6.418;2024-03-23T10:10:15;2.60;;;0.82;;
36291;SDS011;22327;51.208;6.418;2024-03-23T10:13:28;4.95;;;1.00;;
36291;SDS011;22327;51.208;6.418;2024-03-23T10:16:31;3.88;;;1.25;;
36291;SDS011;22327;51.208;6.418;2024-03-23T10:19:32;3.28;;;0.77;;
36291;SDS011;22327;51.208;6.418;2024-03-23T10:22:36;5.00;;;1.25;;
36291;SDS011;22327;51.208;6.418;2024-03-23T10:25:38;1.70;;;0.30;;
36291;SDS011;22327;51.208;6.418;2024-03-23T10:28:55;1.48;;;0.38;;
36291;SDS011;22327;51.208;6.418;2024-03-23T10:32:09;0.98;;;0.30;;
36291;SDS011;22327;51.208;6.418;2024-03-23T10:35:19;0.70;;;0.30;;
36291;SDS011;22327;51.208;6.418;2024-03-23T10:38:23;1.17;;;0.40;;
36291;SDS011;22327;51.208;6.418;2024-03-23T10:41:26;1.92;;;0.30;;
36291;SDS011;22327;51.208;6.418;2024-03-23T10:44:28;0.60;;;0.43;;
36291;SDS011;22327;51.208;6.418;2024-03-23T10:47:34;6.35;;;0.85;;
36291;SDS011;22327;51.208;6.418;2024-03-23T10:50:38;2.83;;;0.80;;
36291;SDS011;22327;51.208;6.418;2024-03-23T10:53:39;2.38;;;0.90;;
36291;SDS011;22327;51.208;6.418;2024-03-23T10:56:40;5.55;;;1.55;;
36291;SDS011;22327;51.208;6.418;2024-03-23T10:59:41;4.05;;;1.73;;
36291;SDS011;22327;51.208;6.418;2024-03-23T11:02:41;3.40;;;0.90;;
36291;SDS011;22327;51.208;6.418;2024-03-23T11:05:48;4.60;;;1.15;;
36291;SDS011;22327;51.208;6.418;2024-03-23T11:08:49;2.80;;;0.80;;
36291;SDS011;22327;51.208;6.418;2024-03-23T11:11:49;3.50;;;1.20;;
36291;SDS011;22327;51.208;6.418;2024-03-23T11:18:10;6.50;;;1.27;;
36291;SDS011;22327;51.208;6.418;2024-03-23T11:21:50;4.95;;;2.00;;
36291;SDS011;22327;51.208;6.418;2024-03-23T11:24:50;3.67;;;1.60;;
36291;SDS011;22327;51.208;6.418;2024-03-23T11:27:54;3.55;;;1.50;;
36291;SDS011;22327;51.208;6.418;2024-03-23T11:30:57;2.67;;;0.70;;
36291;SDS011;22327;51.208;6.418;2024-03-23T11:34:06;0.35;;;0.20;;
36291;SDS011;22327;51.208;6.418;2024-03-23T11:37:07;0.38;;;0.20;;
36291;SDS011;22327;51.208;6.418;2024-03-23T11:40:17;2.38;;;0.70;;
36291;SDS011;22327;51.208;6.418;2024-03-23T11:43:21;2.20;;;1.30;;
36291;SDS011;22327;51.208;6.418;2024-03-23T11:46:22;1.40;;;1.08;;
36291;SDS011;22327;51.208;6.418;2024-03-23T11:49:24;2.28;;;1.23;;
36291;SDS011;22327;51.208;6.418;2024-03-23T11:52:29;4.53;;;1.40;;
36291;SDS011;22327;51.208;6.418;2024-03-23T11:55:30;4.95;;;1.70;;
36291;SDS011;22327;51.208;6.418;2024-03-23T11:58:30;2.58;;;1.00;;
36291;SDS011;22327;51.208;6.418;2024-03-23T12:01:32;2.30;;;0.90;;
36291;SDS011;22327;51.208;6.418;2024-03-23T12:04:33;2.00;;;0.90;;
36291;SDS011;22327;51.208;6.418;2024-03-23T12:07:36;1.67;;;0.90;;
36291;SDS011;22327;51.208;6.418;2024-03-23T12:10:36;2.30;;;0.70;;
36291;SDS011;22327;51.208;6.418;2024-03-23T12:13:38;3.65;;;0.90;;
36291;SDS011;22327;51.208;6.418;2024-03-23T12:16:41;1.90;;;0.75;;
36291;SDS011;22327;51.208;6.418;2024-03-23T12:19:43;1.70;;;0.73;;
36291;SDS011;22327;51.208;6.418;2024-03-23T12:22:45;2.72;;;0.75;;
36291;SDS011;22327;51.208;6.418;2024-03-23T12:25:48;1.13;;;0.30;;
36291;SDS011;22327;51.208;6.418;2024-03-23T12:28:49;2.58;;;0.70;;
36291;SDS011;22327;51.208;6.418;2024-03-23T12:31:49;2.90;;;0.70;;
36291;SDS011;22327;51.208;6.418;2024-03-23T12:34:50;3.25;;;1.17;;
36291;SDS011;22327;51.208;6.418;2024-03-23T12:37:50;4.88;;;1.83;;
36291;SDS011;22327;51.208;6.418;2024-03-23T12:40:51;1.05;;;0.60;;
36291;SDS011;22327;51.208;6.418;2024-03-23T12:43:51;2.42;;;0.68;;
36291;SDS011;22327;51.208;6.418;2024-03-23T12:46:52;2.20;;;0.50;;
36291;SDS011;22327;51.208;6.418;2024-03-23T12:49:52;1.55;;;0.50;;
36291;SDS011;22327;51.208;6.418;2024-03-23T12:52:53;0.98;;;0.15;;
36291;SDS011;22327;51.208;6.418;2024-03-23T12:55:53;0.38;;;0.17;;
36291;SDS011;22327;51.208;6.418;2024-03-23T12:58:54;2.00;;;0.55;;
36291;SDS011;22327;51.208;6.418;2024-03-23T13:01:57;1.88;;;0.32;;
36291;SDS011;22327;51.208;6.418;2024-03-23T13:04:57;1.70;;;0.38;;
36291;SDS011;22327;51.208;6.418;2024-03-23T13:07:58;1.00;;;0.20;;
36291;SDS011;22327;51.208;6.418;2024-03-23T13:10:59;2.72;;;0.63;;
36291;SDS011;22327;51.208;6.418;2024-03-23T13:13:59;3.50;;;0.73;;
36291;SDS011;22327;51.208;6.418;2024-03-23T13:17:00;2.63;;;0.45;;
36291;SDS011;22327;51.208;6.418;2024-03-23T13:20:02;2.38;;;0.60;;
36291;SDS011;22327;51.208;6.418;2024-03-23T13:23:03;2.85;;;0.63;;
36291;SDS011;22327;51.208;6.418;2024-03-23T13:26:04;1.02;;;0.50;;
36291;SDS011;22327;51.208;6.418;2024-03-23T13:29:05;2.42;;;0.93;;
36291;SDS011;22327;51.208;6.418;2024-03-23T13:32:05;4.78;;;2.85;;
36291;SDS011;22327;51.208;6.418;2024-03-23T13:35:06;4.45;;;1.70;;
36291;SDS011;22327;51.208;6.418;2024-03-23T13:38:07;3.53;;;1.40;;
36291;SDS011;22327;51.208;6.418;2024-03-23T13:41:08;2.30;;;0.98;;
36291;SDS011;22327;51.208;6.418;2024-03-23T13:44:12;2.90;;;1.00;;
36291;SDS011;22327;51.208;6.418;2024-03-23T13:47:14;2.33;;;0.70;;
36291;SDS011;22327;51.208;6.418;2024-03-23T13:50:15;2.80;;;0.93;;
36291;SDS011;22327;51.208;6.418;2024-03-23T13:53:16;3.90;;;0.98;;
36291;SDS011;22327;51.208;6.418;2024-03-23T13:56:16;2.70;;;0.80;;
36291;SDS011;22327;51.208;6.418;2024-03-23T13:59:17;3.83;;;0.90;;
36291;SDS011;22327;51.208;6.418;2024-03-23T14:02:17;6.03;;;1.35;;
36291;SDS011;22327;51.208;6.418;2024-03-23T14:05:18;0.40;;;0.32;;
36291;SDS011;22327;51.208;6.418;2024-03-23T14:08:18;1.33;;;0.50;;
36291;SDS011;22327;51.208;6.418;2024-03-23T14:11:21;1.53;;;0.70;;
36291;SDS011;22327;51.208;6.418;2024-03-23T14:14:22;0.90;;;0.50;;
36291;SDS011;22327;51.208;6.418;2024-03-23T14:17:22;3.22;;;1.20;;
36291;SDS011;22327;51.208;6.418;2024-03-23T14:20:23;2.42;;;1.20;;
36291;SDS011;22327;51.208;6.418;2024-03-23T14:23:27;4.35;;;2.30;;
36291;SDS011;22327;51.208;6.418;2024-03-23T14:26:33;2.83;;;1.50;;
36291;SDS011;22327;51.208;6.418;2024-03-23T14:29:33;1.92;;;0.77;;
36291;SDS011;22327;51.208;6.418;2024-03-23T14:32:34;1.27;;;0.70;;
36291;SDS011;22327;51.208;6.418;2024-03-23T14:35:35;0.93;;;0.70;;
36291;SDS011;22327;51.208;6.418;2024-03-23T14:38:36;1.52;;;0.73;;
36291;SDS011;22327;51.208;6.418;2024-03-23T14:41:36;1.27;;;0.70;;
36291;SDS011;22327;51.208;6.418;2024-03-23T14:44:37;4.45;;;1.42;;
36291;SDS011;22327;51.208;6.418;2024-03-23T14:47:37;2.75;;;1.50;;
36291;SDS011;22327;51.208;6.418;2024-03-23T14:50:38;1.38;;;0.70;;
36291;SDS011;22327;51.208;6.418;2024-03-23T14:53:39;1.77;;;0.70;;
36291;SDS011;22327;51.208;6.418;2024-03-23T14:56:41;2.03;;;0.93;;
36291;SDS011;22327;51.208;6.418;2024-03-23T14:59:41;2.65;;;0.90;;
36291;SDS011;22327;51.208;6.418;2024-03-23T15:02:42;2.10;;;0.70;;
36291;SDS011;22327;51.208;6.418;2024-03-23T15:05:45;3.13;;;0.90;;
36291;SDS011;22327;51.208;6.418;2024-03-23T15:08:54;3.40;;;1.00;;
36291;SDS011;22327;51.208;6.418;2024-03-23T15:11:54;0.88;;;0.73;;
36291;SDS011;22327;51.208;6.418;2024-03-23T15:14:55;1.88;;;1.35;;
36291;SDS011;22327;51.208;6.418;2024-03-23T15:17:56;1.60;;;1.35;;
36291;SDS011;22327;51.208;6.418;2024-03-23T15:20:57;2.78;;;1.10;;
36291;SDS011;22327;51.208;6.418;2024-03-23T15:24:02;4.10;;;1.10;;
36291;SDS011;22327;51.208;6.418;2024-03-23T15:27:03;2.63;;;1.25;;
36291;SDS011;22327;51.208;6.418;2024-03-23T15:30:04;3.88;;;1.05;;
36291;SDS011;22327;51.208;6.418;2024-03-23T15:33:05;2.95;;;0.82;;
36291;SDS011;22327;51.208;6.418;2024-03-23T15:36:05;1.75;;;0.73;;
36291;SDS011;22327;51.208;6.418;2024-03-23T15:39:06;4.32;;;0.82;;
36291;SDS011;22327;51.208;6.418;2024-03-23T15:42:07;1.55;;;0.60;;
36291;SDS011;22327;51.208;6.418;2024-03-23T15:45:08;0.88;;;0.20;;
36291;SDS011;22327;51.208;6.418;2024-03-23T15:48:09;0.40;;;0.40;;
36291;SDS011;22327;51.208;6.418;2024-03-23T15:51:10;0.63;;;0.38;;
36291;SDS011;22327;51.208;6.418;2024-03-23T15:54:10;0.85;;;0.20;;
36291;SDS011;22327;51.208;6.418;2024-03-23T15:57:11;1.45;;;0.30;;
36291;SDS011;22327;51.208;6.418;2024-03-23T16:00:12;1.58;;;0.55;;
36291;SDS011;22327;51.208;6.418;2024-03-23T16:03:13;2.25;;;0.43;;
36291;SDS011;22327;51.208;6.418;2024-03-23T16:06:13;0.80;;;0.45;;
36291;SDS011;22327;51.208;6.418;2024-03-23T16:09:14;0.70;;;0.60;;
36291;SDS011;22327;51.208;6.418;2024-03-23T16:12:14;2.45;;;0.63;;
36291;SDS011;22327;51.208;6.418;2024-03-23T16:15:15;1.35;;;0.50;;
36291;SDS011;22327;51.208;6.418;2024-03-23T16:18:16;1.88;;;0.80;;
36291;SDS011;22327;51.208;6.418;2024-03-23T16:21:16;1.52;;;0.80;;
36291;SDS011;22327;51.208;6.418;2024-03-23T16:24:17;3.15;;;1.00;;
36291;SDS011;22327;51.208;6.418;2024-03-23T16:27:18;1.50;;;0.70;;
36291;SDS011;22327;51.208;6.418;2024-03-23T16:30:18;2.42;;;0.73;;
36291;SDS011;22327;51.208;6.418;2024-03-23T16:33:20;1.63;;;0.95;;
36291;SDS011;22327;51.208;6.418;2024-03-23T16:36:21;2.33;;;0.95;;
36291;SDS011;22327;51.208;6.418;2024-03-23T16:39:21;2.60;;;0.70;;
36291;SDS011;22327;51.208;6.418;2024-03-23T16:42:22;2.20;;;0.60;;
36291;SDS011;22327;51.208;6.418;2024-03-23T16:45:22;1.75;;;0.60;;
36291;SDS011;22327;51.208;6.418;2024-03-23T16:48:23;3.38;;;0.68;;
36291;SDS011;22327;51.208;6.418;2024-03-23T16:51:24;1.75;;;0.75;;
36291;SDS011;22327;51.208;6.418;2024-03-23T16:54:25;1.58;;;0.57;;
36291;SDS011;22327;51.208;6.418;2024-03-23T16:57:25;1.45;;;0.50;;
36291;SDS011;22327;51.208;6.418;2024-03-23T17:00:26;1.60;;;0.77;;
36291;SDS011;22327;51.208;6.418;2024-03-23T17:03:26;2.55;;;0.70;;
36291;SDS011;22327;51.208;6.418;2024-03-23T17:06:27;1.60;;;0.47;;
36291;SDS011;22327;51.208;6.418;2024-03-23T17:09:27;2.05;;;1.00;;
36291;SDS011;22327;51.208;6.418;2024-03-23T17:12:28;2.25;;;0.60;;
36291;SDS011;22327;51.208;6.418;2024-03-23T17:15:28;0.55;;;0.30;;
36291;SDS011;22327;51.208;6.418;2024-03-23T17:18:29;1.70;;;0.57;;
36291;SDS011;22327;51.208;6.418;2024-03-23T17:21:29;1.38;;;0.30;;
36291;SDS011;22327;51.208;6.418;2024-03-23T17:24:30;1.35;;;0.43;;
36291;SDS011;22327;51.208;6.418;2024-03-23T17:27:32;2.78;;;0.40;;
36291;SDS011;22327;51.208;6.418;2024-03-23T17:30:32;2.88;;;0.30;;
36291;SDS011;22327;51.208;6.418;2024-03-23T17:33:33;1.80;;;0.38;;
36291;SDS011;22327;51.208;6.418;2024-03-23T17:36:33;0.55;;;0.40;;
36291;SDS011;22327;51.208;6.418;2024-03-23T17:39:35;1.27;;;0.50;;
36291;SDS011;22327;51.208;6.418;2024-03-23T17:42:36;2.47;;;0.50;;
36291;SDS011;22327;51.208;6.418;2024-03-23T17:45:37;1.55;;;0.55;;
36291;SDS011;22327;51.208;6.418;2024-03-23T17:48:37;1.45;;;0.35;;
36291;SDS011;22327;51.208;6.418;2024-03-23T17:51:38;1.25;;;0.40;;
36291;SDS011;22327;51.208;6.418;2024-03-23T17:54:39;0.75;;;0.40;;
36291;SDS011;22327;51.208;6.418;2024-03-23T17:57:39;1.50;;;0.60;;
36291;SDS011;22327;51.208;6.418;2024-03-23T18:00:40;1.42;;;0.50;;
36291;SDS011;22327;51.208;6.418;2024-03-23T18:03:40;2.03;;;0.65;;
36291;SDS011;22327;51.208;6.418;2024-03-23T18:06:41;1.05;;;0.52;;
36291;SDS011;22327;51.208;6.418;2024-03-23T18:09:41;2.97;;;0.60;;
36291;SDS011;22327;51.208;6.418;2024-03-23T18:12:43;2.67;;;0.88;;
36291;SDS011;22327;51.208;6.418;2024-03-23T18:15:46;1.33;;;0.93;;
36291;SDS011;22327;51.208;6.418;2024-03-23T18:18:54;3.38;;;1.05;;
36291;SDS011;22327;51.208;6.418;2024-03-23T18:21:55;2.75;;;0.90;;
36291;SDS011;22327;51.208;6.418;2024-03-23T18:24:55;1.90;;;1.00;;
36291;SDS011;22327;51.208;6.418;2024-03-23T18:27:57;1.85;;;0.80;;
36291;SDS011;22327;51.208;6.418;2024-03-23T18:30:59;2.65;;;0.80;;
36291;SDS011;22327;51.208;6.418;2024-03-23T18:34:00;2.92;;;1.30;;
36291;SDS011;22327;51.208;6.418;2024-03-23T18:37:01;2.40;;;1.23;;
36291;SDS011;22327;51.208;6.418;2024-03-23T18:40:02;2.67;;;1.48;;
36291;SDS011;22327;51.208;6.418;2024-03-23T18:43:03;4.25;;;1.60;;
36291;SDS011;22327;51.208;6.418;2024-03-23T18:46:03;4.13;;;1.50;;
36291;SDS011;22327;51.208;6.418;2024-03-23T18:49:04;3.78;;;1.63;;
36291;SDS011;22327;51.208;6.418;2024-03-23T18:52:04;2.85;;;1.30;;
36291;SDS011;22327;51.208;6.418;2024-03-23T18:55:05;5.03;;;1.92;;
36291;SDS011;22327;51.208;6.418;2024-03-23T18:58:06;4.38;;;1.50;;
36291;SDS011;22327;51.208;6.418;2024-03-23T19:01:06;3.28;;;1.42;;
36291;SDS011;22327;51.208;6.418;2024-03-23T19:04:08;4.53;;;1.52;;